• Join FlightAware (Why Join?)
  • Login
  • US Flag 
11:11PM EDT


 

Airport Tracker/Info


-or-


 

Live Flight TrackerFlight Track Log ✈ UAL33 ✈ 30-Apr-2013 ✈ KLAX - KJFK

Flight Track Log - Related Links

Times and Time Zones

All times are in EDT time to prevent confusion due to time zone crossing. See the UAL33 flight status page for this flight to view local times or setup timezone preferences in your user account.

Time Position Orientation Groundspeed Altitude Reporting Facility
EDT Latitude Longitude Course Direction KTS MPH feet Rate Location/Type
03:02PM 33.9330 -118.4500 263° West 209 241 1,600  Level FlightAware
03:02PM 33.9290 -118.4760 260° West 228 262 2,300 2,400 Climbing FlightAware
03:03PM 33.9170 -118.5130 249° West 237 273 3,800 3,000 Climbing FlightAware
03:03PM 33.9120 -118.5270 247° West 243 280 4,300 3,180 Climbing FlightAware
03:03PM 33.8950 -118.5570 236° Southwest 266 306 5,400 3,000 Climbing FlightAware
03:03PM 33.8820 -118.5640 204° Southwest 279 321 5,800 2,100 Climbing FlightAware
03:04PM 33.8710 -118.5660 189° South 287 330 6,100 2,580 Climbing FlightAware
03:04PM 33.8430 -118.5530 159° South 302 348 7,100 2,880 Climbing FlightAware
03:04PM 33.8290 -118.5330 130° Southeast 305 351 7,800 2,880 Climbing FlightAware
03:04PM 33.8250 -118.5170 107° East 304 350 8,300 2,820 Climbing FlightAware
03:05PM 33.8350 -118.4700 76° East 296 341 9,700 2,760 Climbing FlightAware
03:05PM 33.8500 -118.4540 42° Northeast 294 338 10,400 1,980 Climbing FlightAware
03:05PM 33.8680 -118.4420 29° Northeast 306 352 10,700 1,200 Climbing FlightAware
03:06PM 33.8880 -118.4370 12° North 320 368 11,000 1,320 Climbing FlightAware
03:06PM 33.9280 -118.4270 12° North 348 400 11,600 1,620 Climbing FlightAware
03:06PM 33.9460 -118.4110 36° Northeast 356 410 12,100 2,280 Climbing FlightAware
03:07PM 33.9860 -118.3470 53° Northeast 369 425 13,700 2,400 Climbing FlightAware
03:08PM 34.0290 -118.2690 56° Northeast 379 436 15,500 2,460 Climbing FlightAware
03:08PM 34.0710 -118.1950 56° Northeast 386 444 17,200 2,280 Climbing FlightAware
03:09PM 34.1150 -118.1170 56° Northeast 398 458 18,800 2,040 Climbing FlightAware
03:10PM 34.1580 -118.0410 56° Northeast 412 474 20,100 1,980 Climbing FlightAware
03:10PM 34.2010 -117.9660 55° Northeast 419 482 21,500 2,100 Climbing FlightAware
03:11PM 34.2520 -117.8740 56° Northeast 427 491 23,100 2,040 Climbing FlightAware
03:12PM 34.2960 -117.7960 56° Northeast 432 497 24,400 1,860 Climbing FlightAware
03:13PM 34.3410 -117.7150 56° Northeast 437 503 25,600 1,740 Climbing FlightAware
03:13PM 34.3910 -117.6260 56° Northeast 444 511 26,900 1,740 Climbing FlightAware
03:14PM 34.4380 -117.5420 56° Northeast 448 516 28,100 1,440 Climbing FlightAware
03:15PM 34.4910 -117.4470 56° Northeast 456 525 29,000 600 Climbing FlightAware
03:15PM 34.5390 -117.3600 56° Northeast 459 528 29,000  Level FlightAware
03:16PM 34.5860 -117.2760 56° Northeast 455 524 29,000  Level FlightAware
03:17PM 34.6370 -117.1830 56° Northeast 455 524 29,000 540 Level FlightAware
03:17PM 34.6840 -117.0980 56° Northeast 457 526 29,800 1,200 Climbing FlightAware
03:18PM 34.7370 -117.0010 56° Northeast 466 536 30,700 1,380 Climbing FlightAware
03:19PM 34.7860 -116.9110 56° Northeast 465 535 31,800 1,680 Climbing FlightAware
03:20PM 34.8390 -116.8140 56° Northeast 462 532 33,100 1,620 Climbing FlightAware
03:20PM 34.8840 -116.7250 58° Northeast 459 528 34,100 1,380 Climbing FlightAware
03:21PM 34.9310 -116.6380 57° Northeast 457 526 35,000 1,380 Climbing FlightAware
03:22PM 34.9880 -116.5500 52° Northeast 453 521 36,100 1,320 Climbing FlightAware
03:22PM 35.0460 -116.4760 46° Northeast 451 519 36,900 600 Climbing FlightAware
03:23PM 35.1130 -116.3930 45° Northeast 450 518 37,000 60 Climbing FlightAware
03:24PM 35.1720 -116.3200 45° Northeast 450 518 37,000  Level FlightAware
03:24PM 35.2290 -116.2490 45° Northeast 453 521 37,000  Level FlightAware
03:25PM 35.2940 -116.1670 46° Northeast 454 522 37,000  Level FlightAware
03:26PM 35.3530 -116.0920 46° Northeast 456 525 37,000  Level FlightAware
03:27PM 35.4220 -116.0060 45° Northeast 458 527 37,000  Level FlightAware
03:27PM 35.4800 -115.9330 46° Northeast 458 527 37,000  Level FlightAware
03:28PM 35.5400 -115.8560 46° Northeast 458 527 37,000  Level FlightAware
03:29PM 35.6040 -115.7760 45° Northeast 459 528 37,000  Level FlightAware
03:29PM 35.6640 -115.7000 46° Northeast 459 528 37,000  Level FlightAware
03:30PM 35.7320 -115.6130 46° Northeast 460 529 37,000  Level FlightAware
03:31PM 35.7890 -115.5410 46° Northeast 461 531 37,000  Level FlightAware
03:31PM 35.8490 -115.4630 46° Northeast 461 531 37,000  Level FlightAware
03:32PM 35.9140 -115.3800 46° Northeast 463 533 37,000  Level FlightAware
03:33PM 35.9750 -115.3020 46° Northeast 461 531 37,000  Level FlightAware
03:34PM 36.0410 -115.2170 46° Northeast 463 533 37,000  Level FlightAware
03:34PM 36.0870 -115.1430 52° Northeast 469 540 37,000  Level FlightAware
03:35PM 36.1200 -115.0500 66° East 472 543 37,000  Level FlightAware
03:36PM 36.1530 -114.9430 69° East 475 547 37,000  Level FlightAware
03:36PM 36.1890 -114.8260 69° East 476 548 37,000  Level FlightAware
03:37PM 36.2200 -114.7250 69° East 476 548 37,000  Level FlightAware
03:38PM 36.2510 -114.6230 69° East 475 547 37,000  Level FlightAware
03:38PM 36.2860 -114.5100 69° East 475 547 37,000  Level FlightAware
03:39PM 36.3160 -114.4100 70° East 474 545 37,000  Level FlightAware
03:40PM 36.3520 -114.2920 69° East 474 545 37,000  Level FlightAware
03:40PM 36.3830 -114.1900 69° East 474 545 37,000  Level FlightAware
03:41PM 36.4170 -114.0780 69° East 474 545 37,000  Level FlightAware
03:42PM 36.4470 -113.9760 70° East 474 545 37,000  Level FlightAware
03:43PM 36.4770 -113.8750 70° East 474 545 37,000  Level FlightAware
03:43PM 36.5120 -113.7590 69° East 474 545 37,000  Level FlightAware
03:44PM 36.5420 -113.6560 70° East 476 548 37,000  Level FlightAware
03:45PM 36.5730 -113.5540 69° East 478 550 37,000  Level FlightAware
03:45PM 36.6060 -113.4400 70° East 478 550 37,000  Level FlightAware
03:46PM 36.6360 -113.3370 70° East 477 549 37,000  Level FlightAware
03:47PM 36.6710 -113.2170 70° East 477 549 37,000  Level FlightAware
03:47PM 36.7000 -113.1190 70° East 479 551 37,000  Level FlightAware
03:48PM 36.7330 -113.0020 71° East 480 552 37,000  Level FlightAware
03:49PM 36.7630 -112.8980 70° East 479 551 37,000  Level FlightAware
03:50PM 36.7930 -112.7950 70° East 481 554 37,000  Level FlightAware
03:50PM 36.8280 -112.6700 71° East 484 557 37,000  Level FlightAware
03:51PM 36.8570 -112.5670 71° East 486 559 37,000  Level FlightAware
03:52PM 36.8880 -112.4610 70° East 487 560 37,000  Level FlightAware
03:52PM 36.9140 -112.3710 70° East 487 560 37,000  Level FlightAware
03:53PM 36.9410 -112.2800 70° East 487 560 37,000  Level FlightAware
03:54PM 36.9670 -112.1900 70° East 487 560 37,000  Level FlightAware
03:54PM 36.9930 -112.1000 70° East 487 560 37,000  Level FlightAware
03:55PM 37.0260 -111.9880 70° East 487 560 37,000  Level FlightAware
03:56PM 37.0520 -111.8970 70° East 487 560 37,000  Level FlightAware
03:57PM 37.0780 -111.8070 70° East 487 560 37,000  Level FlightAware
03:57PM 37.1040 -111.7170 70° East 487 560 37,000  Level FlightAware
03:58PM 37.1300 -111.6270 70° East 487 560 37,000  Level FlightAware
03:59PM 37.1630 -111.5140 70° East 487 560 37,000  Level FlightAware
03:59PM 37.1890 -111.4230 70° East 487 560 37,000  Level FlightAware
04:00PM 37.2160 -111.3330 69° East 487 560 37,000  Level FlightAware
04:01PM 37.2350 -111.2650 71° East 487 560 37,000  Level FlightAware
04:01PM 37.2906 -110.9567 71° East 492 566 37,000  Level Denver Center
04:02PM 37.3336 -110.7944 71° East 492 566 37,000  Level Denver Center
04:03PM 37.3772 -110.6308 71° East 494 568 37,000  Level Denver Center
04:04PM 37.4286 -110.4358 72° East 491 565 37,000  Level Denver Center
04:05PM 37.4697 -110.2725 72° East 492 566 37,000  Level Denver Center
04:06PM 37.5100 -110.1150 72° East 493 567 37,000  Level Denver Center
04:07PM 37.5572 -109.9322 72° East 490 564 37,000  Level Denver Center
04:08PM 37.5983 -109.7750 72° East 493 567 37,000  Level Denver Center
04:09PM 37.6442 -109.5917 72° East 491 565 37,000  Level Denver Center
04:10PM 37.6836 -109.4336 72° East 492 566 37,000  Level Denver Center
04:11PM 37.7231 -109.2756 72° East 492 566 37,000  Level Denver Center
04:12PM 37.7689 -109.0914 72° East 492 566 37,000  Level Denver Center
04:13PM 37.8078 -108.9322 73° East 494 568 37,000  Level Denver Center
04:20PM 38.0350 -107.8730 73° East 492 566 37,000  Level FlightAware
04:20PM 38.0600 -107.7490 76° East 493 567 37,000  Level FlightAware
04:21PM 38.0840 -107.6300 76° East 496 571 37,000  Level FlightAware
04:22PM 38.1050 -107.5280 75° East 496 571 37,000  Level FlightAware
04:23PM 38.1310 -107.3970 76° East 495 570 37,000  Level FlightAware
04:23PM 38.1560 -107.2750 75° East 497 572 37,000  Level FlightAware
04:24PM 38.1850 -107.1280 76° East 496 571 37,000  Level FlightAware
04:25PM 38.2100 -106.9970 76° East 496 571 37,000  Level FlightAware
04:25PM 38.2247 -106.9250 75° East 497 572 37,000  Level FlightAware ADS-B
04:26PM 38.2414 -106.8390 76° East 496 571 37,000  Level FlightAware ADS-B
04:27PM 38.2666 -106.7100 76° East 500 575 37,000  Level FlightAware ADS-B
04:27PM 38.2834 -106.6230 76° East 498 573 37,000  Level FlightAware ADS-B
04:28PM 38.3043 -106.5140 76° East 497 572 37,000  Level FlightAware ADS-B
04:28PM 38.3244 -106.4090 76° East 497 572 37,000  Level FlightAware ADS-B
04:29PM 38.3481 -106.2850 76° East 497 572 37,000  Level FlightAware ADS-B
04:30PM 38.3675 -106.1830 76° East 495 570 37,000  Level FlightAware ADS-B
04:30PM 38.3859 -106.0860 76° East 494 568 37,000  Level FlightAware ADS-B
04:31PM 38.4020 -106.0000 77° East 496 571 37,000  Level FlightAware ADS-B
04:31PM 38.4187 -105.9110 77° East 494 568 37,000  Level FlightAware ADS-B
04:32PM 38.4348 -105.8250 77° East 495 570 37,000  Level FlightAware ADS-B
04:32PM 38.4509 -105.7380 77° East 497 572 37,000  Level FlightAware ADS-B
04:33PM 38.4672 -105.6500 77° East 495 570 37,000  Level FlightAware ADS-B
04:33PM 38.4831 -105.5640 77° East 496 571 37,000  Level FlightAware ADS-B
04:34PM 38.4990 -105.4770 77° East 496 571 37,000  Level FlightAware ADS-B
04:34PM 38.5148 -105.3910 77° East 495 570 37,000  Level FlightAware ADS-B
04:35PM 38.5304 -105.3050 77° East 495 570 37,000  Level FlightAware ADS-B
04:35PM 38.5462 -105.2170 77° East 493 567 37,000  Level FlightAware ADS-B
04:36PM 38.5625 -105.1270 77° East 496 571 37,000  Level FlightAware ADS-B
04:36PM 38.5800 -105.0300 77° East 495 570 37,000  Level FlightAware ADS-B
04:37PM 38.5955 -104.9430 77° East 495 570 37,000  Level FlightAware ADS-B
04:37PM 38.6113 -104.8540 77° East 495 570 37,000  Level FlightAware ADS-B
04:38PM 38.6310 -104.7420 77° East 496 571 37,000  Level FlightAware ADS-B
04:39PM 38.6535 -104.6140 77° East 493 567 37,000  Level FlightAware ADS-B
04:39PM 38.6719 -104.5090 77° East 491 565 37,000  Level FlightAware ADS-B
04:40PM 38.6871 -104.4210 77° East 491 565 37,000  Level FlightAware ADS-B
04:40PM 38.7031 -104.3280 78° East 488 562 37,000  Level FlightAware ADS-B
04:41PM 38.7177 -104.2430 78° East 487 560 37,000  Level FlightAware ADS-B
04:41PM 38.7323 -104.1590 77° East 485 558 37,000  Level FlightAware ADS-B
04:42PM 38.7470 -104.0720 78° East 483 556 37,000  Level FlightAware ADS-B
04:43PM 38.7613 -103.9880 78° East 489 563 37,000  Level FlightAware ADS-B
04:43PM 38.7767 -103.8970 78° East 493 567 37,000  Level FlightAware ADS-B
04:44PM 38.7912 -103.8100 78° East 495 570 37,000  Level FlightAware ADS-B
04:44PM 38.8058 -103.7240 78° East 498 573 37,000  Level FlightAware ADS-B
04:44PM 38.8153 -103.6630 79° East 499 574 37,000  Level FlightAware ADS-B
04:45PM 38.8221 -103.5980 82° East 499 574 37,000  Level FlightAware ADS-B
04:45PM 38.8262 -103.5080 87° East 501 577 37,000  Level FlightAware ADS-B
04:46PM 38.8286 -103.4190 88° East 500 575 37,000  Level FlightAware ADS-B
04:46PM 38.8307 -103.3290 88° East 501 577 37,000  Level FlightAware ADS-B
04:47PM 38.8326 -103.2400 88° East 503 579 37,000  Level FlightAware ADS-B
04:47PM 38.8346 -103.1480 88° East 501 577 37,000  Level FlightAware ADS-B
04:48PM 38.8365 -103.0590 88° East 501 577 37,000  Level FlightAware ADS-B
04:48PM 38.8385 -102.9670 88° East 499 574 37,000  Level FlightAware ADS-B
04:49PM 38.8404 -102.8770 88° East 496 571 37,000  Level FlightAware ADS-B
04:49PM 38.8423 -102.7880 88° East 496 571 37,000  Level FlightAware ADS-B
04:50PM 38.8440 -102.7000 89° East 494 568 37,000  Level FlightAware ADS-B
04:50PM 38.8456 -102.6100 89° East 492 566 37,000  Level FlightAware ADS-B
04:51PM 38.8473 -102.5190 89° East 489 563 37,000  Level FlightAware ADS-B
04:51PM 38.8489 -102.4280 89° East 486 559 37,000  Level FlightAware ADS-B
04:52PM 38.8504 -102.3400 89° East 484 557 37,000  Level FlightAware ADS-B
04:52PM 38.8518 -102.2530 89° East 483 556 37,000  Level FlightAware ADS-B
04:53PM 38.8530 -102.1650 89° East 481 554 37,000  Level FlightAware ADS-B
04:53PM 38.8542 -102.0800 89° East 480 552 37,000  Level FlightAware ADS-B
04:54PM 38.8554 -101.9940 89° East 480 552 37,000  Level FlightAware ADS-B
04:54PM 38.8566 -101.9060 89° East 480 552 37,000  Level FlightAware ADS-B
04:55PM 38.8576 -101.8190 89° East 480 552 37,000  Level FlightAware ADS-B
04:55PM 38.8585 -101.7340 89° East 478 550 37,000  Level FlightAware ADS-B
04:56PM 38.8595 -101.6480 89° East 474 545 37,000  Level FlightAware ADS-B
04:56PM 38.8603 -101.5630 89° East 473 544 37,000  Level FlightAware ADS-B
04:57PM 38.8611 -101.4780 89° East 474 545 37,000  Level FlightAware ADS-B
04:58PM 38.8619 -101.3780 89° East 474 545 37,000  Level FlightAware ADS-B
04:58PM 38.8525 -101.3392 89° East 474 545 37,000  Level Kansas City Center
04:59PM 38.8539 -101.1808 89° East 472 543 37,000  Level Denver Center
05:00PM 38.8547 -101.0194 90° East 472 543 37,000  Level Denver Center
05:01PM 38.8544 -100.8294 90° East 475 547 37,000  Level Denver Center
05:02PM 38.8558 -100.6686 89° East 473 544 37,000  Level Denver Center
05:03PM 38.8544 -100.4775 90° East 477 549 37,000  Level Denver Center
05:04PM 38.8553 -100.3156 90° East 474 545 37,000  Level Denver Center
05:05PM 38.8542 -100.1258 90° East 474 545 37,000  Level Denver Center
05:06PM 38.8542 -99.9658 90° East 471 542 37,000  Level Denver Center
05:07PM 38.8539 -99.8044 90° East 472 543 37,000  Level Denver Center
05:08PM 38.8522 -99.6178 91° East 470 541 37,000  Level Denver Center
05:09PM 38.8500 -99.4564 91° East 470 541 37,000  Level Denver Center
05:10PM 38.8469 -99.2831 91° East 465 535 37,000  Level Kansas City Center
05:11PM 38.8550 -99.1169 86° East 466 536 37,000  Level Kansas City Center
05:12PM 38.8661 -98.9211 86° East 458 527 37,000  Level Kansas City Center
05:13PM 38.8747 -98.7586 86° East 455 524 37,000  Level Kansas City Center
05:14PM 38.8825 -98.5967 86° East 454 522 37,000  Level Kansas City Center
05:15PM 38.8897 -98.4333 87° East 456 525 37,000  Level Kansas City Center
05:21PM 38.9450 -97.5580 87° East 462 532 37,000  Level FlightAware
05:22PM 38.9690 -97.3840 80° East 463 533 37,000  Level FlightAware
05:22PM 38.9830 -97.2920 79° East 463 533 37,000  Level FlightAware
05:23PM 38.9970 -97.2000 79° East 463 533 37,000  Level FlightAware
05:24PM 39.0110 -97.1080 79° East 463 533 37,000  Level FlightAware
05:25PM 39.0290 -96.9930 79° East 463 533 37,000  Level FlightAware
05:25PM 39.0420 -96.9010 80° East 463 533 37,000  Level FlightAware
05:26PM 39.0560 -96.8090 79° East 463 533 37,000  Level FlightAware
05:27PM 39.0700 -96.7170 79° East 463 533 37,000  Level FlightAware
05:27PM 39.0840 -96.6250 79° East 463 533 37,000  Level FlightAware
05:28PM 39.1010 -96.5100 79° East 463 533 37,000  Level FlightAware
05:29PM 39.1150 -96.4180 79° East 463 533 37,000  Level FlightAware
05:30PM 39.1340 -96.1140 85° East 461 531 37,000  Level FlightAware
05:30PM 39.1470 -96.0040 81° East 462 532 37,000  Level FlightAware
05:31PM 39.1600 -95.8960 81° East 461 531 37,000  Level FlightAware
05:32PM 39.1689 -95.7378 81° East 465 535 37,000  Level Kansas City Center
05:33PM 39.1903 -95.5567 81° East 461 531 37,000  Level Kansas City Center
05:34PM 39.2106 -95.3864 81° East 457 526 37,000  Level Kansas City Center
05:40PM 39.3310 -94.4710 81° East 454 522 37,000  Level FlightAware
05:40PM 39.3470 -94.3520 80° East 454 522 37,000  Level FlightAware
05:41PM 39.3600 -94.2450 81° East 452 520 37,000  Level FlightAware
05:42PM 39.3730 -94.1400 81° East 453 521 37,000  Level FlightAware
05:43PM 39.3890 -94.0180 80° East 453 521 37,000  Level FlightAware
05:43PM 39.4020 -93.9110 81° East 454 522 37,000  Level FlightAware
05:44PM 39.4170 -93.7910 81° East 454 522 37,000  Level FlightAware
05:45PM 39.4300 -93.6850 81° East 454 522 37,000  Level FlightAware
05:45PM 39.4440 -93.5770 80° East 454 522 37,000  Level FlightAware
05:46PM 39.4590 -93.4550 81° East 454 522 37,000  Level FlightAware
05:47PM 39.4720 -93.3460 81° East 453 521 37,000  Level FlightAware
05:47PM 39.4800 -93.2770 81° East 453 521 37,000  Level FlightAware
05:48PM 39.4940 -93.1610 81° East 452 520 37,000  Level FlightAware
05:49PM 39.5080 -93.0420 81° East 451 519 37,000  Level FlightAware
05:49PM 39.5200 -92.9400 81° East 451 519 37,000  Level FlightAware
05:50PM 39.5320 -92.8370 81° East 449 517 37,000  Level FlightAware
05:51PM 39.5460 -92.7080 82° East 449 517 37,000  Level FlightAware
05:52PM 39.5610 -92.5840 81° East 448 516 37,000  Level FlightAware
05:52PM 39.5760 -92.4500 82° East 448 516 37,000  Level FlightAware
05:53PM 39.5920 -92.3020 82° East 447 514 37,000  Level FlightAware
05:54PM 39.6010 -92.2240 81° East 447 514 37,000  Level FlightAware
05:54PM 39.6130 -92.1130 82° East 447 514 37,000  Level FlightAware
05:55PM 39.6240 -92.0130 82° East 447 514 37,000  Level FlightAware
05:56PM 39.6370 -91.8900 82° East 447 514 37,000  Level FlightAware
05:57PM 39.6480 -91.7870 82° East 447 514 37,000  Level FlightAware
05:57PM 39.6600 -91.6790 82° East 447 514 37,000  Level FlightAware
05:58PM 39.6700 -91.5840 82° East 447 514 37,000  Level FlightAware
05:59PM 39.6800 -91.4930 82° East 447 514 37,000  Level FlightAware
05:59PM 39.6960 -91.3330 83° East 446 513 37,000  Level FlightAware
06:00PM 39.7060 -91.2290 83° East 447 514 37,000  Level FlightAware
06:01PM 39.7160 -91.1360 82° East 448 516 37,000  Level FlightAware
06:02PM 39.7330 -90.9600 83° East 449 517 37,000  Level FlightAware
06:02PM 39.7440 -90.8570 82° East 450 518 37,000  Level FlightAware
06:03PM 39.7540 -90.7520 83° East 449 517 37,000  Level FlightAware
06:04PM 39.7680 -90.6070 83° East 450 518 37,000  Level FlightAware
06:05PM 39.7780 -90.5030 83° East 450 518 37,000  Level FlightAware
06:05PM 39.7880 -90.3950 83° East 450 518 37,000  Level FlightAware
06:06PM 39.8000 -90.2720 83° East 451 519 37,000  Level FlightAware
06:07PM 39.8080 -90.1760 84° East 451 519 37,000  Level FlightAware
06:07PM 39.8190 -90.0600 83° East 453 521 37,000  Level FlightAware
06:08PM 39.8300 -89.9440 83° East 454 522 37,000  Level FlightAware
06:09PM 39.8390 -89.8440 83° East 453 521 37,000  Level FlightAware
06:09PM 39.8490 -89.7220 84° East 455 524 37,000  Level FlightAware
06:10PM 39.8540 -89.5980 87° East 455 524 37,000  Level FlightAware
06:11PM 39.8550 -89.4770 89° East 455 524 37,000  Level FlightAware
06:11PM 39.8550 -89.3770 90° East 455 524 37,000  Level FlightAware
06:12PM 39.8560 -89.2580 89° East 455 524 37,000  Level FlightAware
06:13PM 39.8570 -89.1440 89° East 455 524 37,000  Level FlightAware
06:14PM 39.8570 -89.0370 90° East 454 522 37,000  Level FlightAware
06:14PM 39.8570 -88.9070 90° East 453 521 37,000  Level FlightAware
06:15PM 39.8570 -88.7950 90° East 452 520 37,000  Level FlightAware
06:16PM 39.8660 -88.6840 84° East 449 517 37,000 420 Level FlightAware
06:16PM 39.8810 -88.5670 80° East 444 511 37,600 840 Climbing FlightAware
06:17PM 39.8940 -88.4630 81° East 448 516 38,200 840 Climbing FlightAware
06:18PM 39.9090 -88.3510 80° East 450 518 38,800 540 Climbing FlightAware
06:19PM 39.9240 -88.2330 81° East 451 519 39,000 120 Climbing FlightAware
06:19PM 39.9420 -88.0920 81° East 447 514 39,000  Level FlightAware
06:20PM 39.9560 -87.9830 80° East 445 512 39,000  Level FlightAware
06:21PM 39.9710 -87.8620 81° East 446 513 39,000  Level FlightAware
06:22PM 39.9840 -87.7580 81° East 446 513 39,000  Level FlightAware
06:22PM 39.9970 -87.6520 81° East 446 513 39,000  Level FlightAware
06:23PM 40.0120 -87.5290 81° East 447 514 39,000  Level FlightAware
06:24PM 40.0270 -87.4120 80° East 447 514 39,000  Level FlightAware
06:24PM 40.0400 -87.3030 81° East 448 516 39,000  Level FlightAware
06:25PM 40.0520 -87.2020 81° East 448 516 39,000  Level FlightAware
06:26PM 40.0660 -87.0790 82° East 449 517 39,000  Level FlightAware
06:26PM 40.0780 -86.9780 81° East 449 517 39,000  Level FlightAware
06:27PM 40.0930 -86.8520 81° East 450 518 39,000  Level FlightAware
06:28PM 40.1060 -86.7400 81° East 451 519 39,000  Level FlightAware
06:29PM 40.1170 -86.6390 82° East 451 519 39,000  Level FlightAware
06:29PM 40.1290 -86.5370 81° East 452 520 39,000  Level FlightAware
06:30PM 40.1430 -86.4090 82° East 453 521 39,000  Level FlightAware
06:31PM 40.1570 -86.2860 81° East 453 521 39,000  Level FlightAware
06:31PM 40.1680 -86.1810 82° East 453 521 39,000  Level FlightAware
06:32PM 40.1810 -86.0670 81° East 452 520 39,000  Level FlightAware
06:33PM 40.1940 -85.9460 82° East 451 519 39,000  Level FlightAware
06:33PM 40.2050 -85.8410 82° East 449 517 39,000  Level FlightAware
06:34PM 40.2140 -85.7540 82° East 447 514 39,000  Level FlightAware
06:35PM 40.2260 -85.6420 82° East 447 514 39,000  Level FlightAware
06:36PM 40.2400 -85.5070 82° East 444 511 39,000  Level FlightAware
06:36PM 40.2560 -85.3870 80° East 440 506 39,000  Level FlightAware
06:37PM 40.2820 -85.2960 69° East 436 502 39,000  Level FlightAware
06:38PM 40.3220 -85.1800 66° East 435 501 39,000  Level FlightAware
06:38PM 40.3560 -85.0840 65° Northeast 434 499 39,000  Level FlightAware
06:39PM 40.3880 -84.9880 66° East 435 501 39,000  Level FlightAware
06:40PM 40.4250 -84.8820 65° Northeast 435 501 39,000  Level FlightAware
06:40PM 40.4580 -84.7850 66° East 435 501 39,000  Level FlightAware
06:41PM 40.4950 -84.6770 66° East 436 502 39,000  Level FlightAware
06:42PM 40.5270 -84.5790 67° East 437 503 39,000  Level FlightAware
06:43PM 40.5600 -84.4820 66° East 438 504 39,000  Level FlightAware
06:43PM 40.5970 -84.3730 66° East 440 506 39,000  Level FlightAware
06:44PM 40.6300 -84.2740 66° East 441 507 39,000  Level FlightAware
06:45PM 40.6670 -84.1630 66° East 442 509 39,000  Level FlightAware
06:45PM 40.7000 -84.0640 66° East 444 511 39,000  Level FlightAware
06:46PM 40.7320 -83.9660 67° East 446 513 39,000  Level FlightAware
06:47PM 40.7690 -83.8550 66° East 446 513 39,000  Level FlightAware
06:47PM 40.8020 -83.7540 67° East 448 516 39,000  Level FlightAware
06:48PM 40.8380 -83.6440 67° East 450 518 39,000  Level FlightAware
06:49PM 40.8720 -83.5380 67° East 451 519 39,000  Level FlightAware
06:50PM 40.9050 -83.4370 67° East 454 522 39,000  Level FlightAware
06:50PM 40.9370 -83.3390 67° East 455 524 39,000  Level FlightAware
06:51PM 40.9760 -83.2190 67° East 456 525 39,000  Level FlightAware
06:52PM 41.0100 -83.1120 67° East 457 526 39,000  Level FlightAware
06:52PM 41.0460 -83.0020 67° East 458 527 39,000  Level FlightAware
06:53PM 41.0770 -82.9050 67° East 458 527 39,000  Level FlightAware
06:54PM 41.1160 -82.7800 67° East 458 527 39,000  Level FlightAware
06:54PM 41.1490 -82.6780 67° East 459 528 39,000  Level FlightAware
06:55PM 41.1850 -82.5620 68° East 458 527 39,000  Level FlightAware
06:56PM 41.2170 -82.4590 68° East 459 528 39,000  Level FlightAware
06:57PM 41.2500 -82.3580 66° East 457 526 39,000  Level FlightAware
06:57PM 41.2870 -82.2360 68° East 453 521 39,000  Level FlightAware
06:58PM 41.3180 -82.1400 67° East 448 516 39,000  Level FlightAware
06:59PM 41.3490 -82.0370 68° East 444 511 39,000  Level FlightAware
06:59PM 41.3840 -81.9230 68° East 438 504 39,000  Level FlightAware
07:00PM 41.4150 -81.8240 67° East 434 499 39,000  Level FlightAware
07:01PM 41.4480 -81.7150 68° East 430 495 39,000  Level FlightAware
07:01PM 41.4790 -81.6160 67° East 428 493 39,000  Level FlightAware
07:02PM 41.5120 -81.5070 68° East 426 490 39,000  Level FlightAware
07:03PM 41.5420 -81.4080 68° East 425 489 39,000  Level FlightAware
07:04PM 41.5720 -81.3100 68° East 427 491 39,000  Level FlightAware
07:04PM 41.6040 -81.2030 68° East 428 493 39,000  Level FlightAware
07:05PM 41.6350 -81.1010 68° East 429 494 39,000  Level FlightAware
07:06PM 41.6630 -81.0070 68° East 430 495 39,000  Level FlightAware
07:06PM 41.6970 -80.8920 68° East 431 496 39,000  Level FlightAware
07:07PM 41.7260 -80.7930 69° East 432 497 39,000  Level FlightAware
07:08PM 41.7600 -80.6790 68° East 432 497 39,000  Level FlightAware
07:08PM 41.7890 -80.5820 68° East 432 497 39,000  Level FlightAware
07:09PM 41.8180 -80.4810 69° East 433 498 39,000  Level FlightAware
07:10PM 41.8500 -80.3710 69° East 433 498 39,000  Level FlightAware
07:11PM 41.8790 -80.2710 69° East 432 497 39,000  Level FlightAware
07:11PM 41.9130 -80.1550 68° East 432 497 39,000  Level FlightAware
07:12PM 41.9410 -80.0570 69° East 431 496 39,000  Level FlightAware
07:13PM 41.9760 -79.9490 66° East 428 493 39,000  Level FlightAware
07:13PM 42.0250 -79.8680 51° Northeast 425 489 39,000  Level FlightAware
07:14PM 42.0960 -79.7570 49° Northeast 426 490 39,000 -180 Level FlightAware
07:15PM 42.1520 -79.6610 52° Northeast 423 487 38,700 -780 Descending FlightAware
07:16PM 42.1640 -79.5610 81° East 440 506 37,900 -1,200 Descending FlightAware
07:16PM 42.1490 -79.4530 101° East 439 505 37,100 -720 Descending FlightAware
07:17PM 42.1350 -79.3660 102° East 433 498 37,000 -120 Descending FlightAware
07:18PM 42.1170 -79.2570 103° East 429 494 37,000  Level FlightAware
07:18PM 42.0990 -79.1400 102° East 439 505 37,000  Level FlightAware
07:19PM 42.0810 -79.0270 102° East 455 524 37,000  Level FlightAware
07:20PM 42.0640 -78.9210 102° East 458 527 37,000  Level FlightAware
07:21PM 42.0410 -78.7820 103° East 455 524 37,000  Level FlightAware
07:21PM 42.0210 -78.6620 103° East 451 519 37,000  Level FlightAware
07:22PM 42.0010 -78.5410 103° East 448 516 37,000  Level FlightAware
07:23PM 41.9830 -78.4310 102° East 447 514 37,000  Level FlightAware
07:23PM 41.9660 -78.3290 103° East 446 513 37,000  Level FlightAware
07:24PM 41.9450 -78.2020 102° East 447 514 37,000  Level FlightAware
07:25PM 41.9280 -78.1010 103° East 446 513 37,000  Level FlightAware
07:25PM 41.9090 -77.9900 103° East 445 512 37,000  Level FlightAware
07:26PM 41.8880 -77.8710 103° East 447 514 37,000  Level FlightAware
07:27PM 41.8610 -77.7580 108° East 451 519 37,000  Level FlightAware
07:28PM 41.8330 -77.6510 109° East 453 521 37,000  Level FlightAware
07:28PM 41.8060 -77.5490 110° East 454 522 37,000  Level FlightAware
07:29PM 41.7740 -77.4290 110° East 454 522 37,000  Level FlightAware
07:30PM 41.7440 -77.3170 110° East 456 525 37,000  Level FlightAware
07:30PM 41.7140 -77.2040 110° East 460 529 37,000  Level FlightAware
07:31PM 41.6810 -77.0830 110° East 464 534 37,000  Level FlightAware
07:32PM 41.6540 -76.9820 110° East 466 536 37,000  Level FlightAware
07:32PM 41.6202 -76.8585 110° East 464 534 37,000  Level FlightAware ADS-B
07:33PM 41.5865 -76.7347 110° East 462 532 37,000  Level FlightAware ADS-B
07:34PM 41.5638 -76.6527 110° East 461 531 37,000  Level FlightAware ADS-B
07:34PM 41.5403 -76.5670 110° East 454 522 37,000  Level FlightAware ADS-B
07:35PM 41.5171 -76.4829 110° East 451 519 37,000  Level FlightAware ADS-B
07:35PM 41.4954 -76.4039 110° East 451 519 37,000 -240 Level FlightAware ADS-B
07:36PM 41.4716 -76.3188 110° East 452 520 36,800 -1,140 Descending FlightAware ADS-B
07:36PM 41.4445 -76.2223 111° Southeast 454 522 35,700 -2,040 Descending FlightAware ADS-B
07:37PM 41.4222 -76.1428 110° East 458 527 34,500 -2,520 Descending FlightAware ADS-B
07:38PM 41.3870 -76.0172 110° East 463 533 32,500 -2,580 Descending FlightAware ADS-B
07:38PM 41.3637 -75.9346 111° Southeast 469 540 31,200 -2,640 Descending FlightAware ADS-B
07:39PM 41.3376 -75.8426 111° Southeast 472 543 29,700 -2,400 Descending FlightAware ADS-B
07:39PM 41.3136 -75.7585 111° Southeast 467 537 28,600 -2,100 Descending FlightAware ADS-B
07:40PM 41.2899 -75.6785 111° Southeast 461 531 27,600 -1,980 Descending FlightAware ADS-B
07:40PM 41.2645 -75.6000 113° Southeast 454 522 26,600 -1,920 Descending FlightAware ADS-B
07:41PM 41.2374 -75.5192 114° Southeast 448 516 25,600 -1,980 Descending FlightAware ADS-B
07:41PM 41.2118 -75.4437 114° Southeast 440 506 24,600 -1,980 Descending FlightAware ADS-B
07:42PM 41.1838 -75.3606 114° Southeast 434 499 23,500 -1,500 Descending FlightAware ADS-B
07:42PM 41.1591 -75.2872 114° Southeast 419 482 23,000 -480 Descending FlightAware ADS-B
07:43PM 41.1333 -75.2111 114° Southeast 391 450 23,000  Level FlightAware ADS-B
07:44PM 41.1091 -75.1403 114° Southeast 370 426 23,000  Level FlightAware ADS-B
07:44PM 41.0878 -75.0778 114° Southeast 364 419 23,000  Level FlightAware ADS-B
07:45PM 41.0664 -75.0152 114° Southeast 365 420 23,000  Level FlightAware ADS-B
07:45PM 41.0454 -74.9541 114° Southeast 367 422 23,000  Level FlightAware ADS-B
07:46PM 41.0248 -74.8937 114° Southeast 365 420 23,000  Level FlightAware ADS-B
07:46PM 41.0145 -74.8550 109° East 363 418 23,000  Level FlightAware ADS-B
07:46PM 41.0111 -74.8356 103° East 363 418 23,000  Level FlightAware ADS-B
07:46PM 41.0099 -74.8274 101° East 363 418 23,000  Level FlightAware ADS-B
07:47PM 41.0020 -74.7615 99° East 361 415 23,000 -600 Level FlightAware ADS-B
07:47PM 40.9977 -74.7163 97° East 361 415 22,500 -1,380 Descending FlightAware ADS-B
07:47PM 40.9991 -74.6854 87° East 356 410 22,200 -1,320 Descending FlightAware ADS-B
07:47PM 41.0010 -74.6749 77° East 354 407 22,100 -1,140 Descending FlightAware ADS-B
07:47PM 41.0077 -74.6521 69° East 354 407 21,900 -900 Descending FlightAware ADS-B
07:48PM 41.0099 -74.6465 62° Northeast 347 399 21,900 -900 Level FlightAware ADS-B
07:48PM 41.0343 -74.5922 59° Northeast 338 389 21,400 -960 Descending FlightAware ADS-B
07:48PM 41.0559 -74.5445 59° Northeast 329 379 21,000 -1,080 Descending FlightAware ADS-B
07:49PM 41.0631 -74.5229 66° East 330 380 20,700 -1,440 Descending FlightAware ADS-B
07:49PM 41.0652 -74.5126 75° East 331 381 20,600 -1,620 Descending FlightAware ADS-B
07:49PM 41.0667 -74.4928 84° East 335 386 20,300 -2,040 Descending FlightAware ADS-B
07:49PM 41.0662 -74.4820 94° East 339 390 20,100 -1,860 Descending FlightAware ADS-B
07:49PM 41.0636 -74.4648 101° East 344 396 19,900 -1,140 Descending FlightAware ADS-B
07:49PM 41.0588 -74.4492 112° Southeast 346 398 19,800 -780 Descending FlightAware ADS-B
07:50PM 41.0429 -74.4073 117° Southeast 345 397 19,500 -840 Descending FlightAware ADS-B
07:50PM 41.0202 -74.3503 118° Southeast 343 395 19,100 -480 Descending FlightAware ADS-B
07:51PM 40.9948 -74.2872 118° Southeast 338 389 19,000 -120 Descending FlightAware ADS-B
07:51PM 40.9716 -74.2298 118° Southeast 343 395 19,000  Level FlightAware ADS-B
07:51PM 40.9642 -74.2118 119° Southeast 343 395 19,000  Level FlightAware ADS-B
07:52PM 40.9474 -74.1714 119° Southeast 342 394 19,000 -360 Level FlightAware ADS-B
07:52PM 40.9349 -74.1414 119° Southeast 342 394 18,800 -960 Descending FlightAware ADS-B
07:52PM 40.9222 -74.1109 119° Southeast 341 392 18,500 -1,020 Descending FlightAware ADS-B
07:53PM 40.9120 -74.0860 118° Southeast 339 390 18,300 -1,200 Descending FlightAware ADS-B
07:53PM 40.8990 -74.0544 119° Southeast 338 389 17,900 -1,440 Descending FlightAware ADS-B
07:53PM 40.8891 -74.0302 118° Southeast 336 387 17,600 -1,440 Descending FlightAware ADS-B
07:53PM 40.8763 -73.9993 119° Southeast 335 386 17,200 -1,380 Descending FlightAware ADS-B
07:54PM 40.8661 -73.9748 119° Southeast 333 383 16,900 -1,440 Descending FlightAware ADS-B
07:54PM 40.8520 -73.9409 119° Southeast 328 377 16,400 -1,500 Descending FlightAware ADS-B
07:54PM 40.8425 -73.9183 119° Southeast 324 373 16,100 -1,560 Descending FlightAware ADS-B
07:54PM 40.8293 -73.8864 119° Southeast 319 367 15,600 -1,740 Descending FlightAware ADS-B
07:55PM 40.8080 -73.8338 118° Southeast 314 361 14,700 -1,800 Descending FlightAware ADS-B
07:56PM 40.7853 -73.7773 118° Southeast 311 358 13,700 -1,560 Descending FlightAware ADS-B
07:56PM 40.7823 -73.7693 116° Southeast 13,600 -1,320 Descending FlightAware ADS-B
07:56PM 40.7666 -73.7301 118° Southeast 310 357 13,100 -960 Descending FlightAware ADS-B
07:57PM 40.7318 -73.6665 126° Southeast 309 356 12,600 -360 Descending FlightAware ADS-B
07:57PM 40.6913 -73.5974 128° Southeast 302 348 12,600  Level FlightAware ADS-B
07:58PM 40.6652 -73.5523 127° Southeast 304 350 12,600  Level FlightAware ADS-B
07:58PM 40.6482 -73.5243 129° Southeast 303 349 12,600 -480 Level FlightAware ADS-B
07:58PM 40.6384 -73.5138 141° Southeast 302 348 12,400 -1,500 Descending FlightAware ADS-B
07:59PM 40.6256 -73.5059 155° Southeast 299 344 12,100 -1,920 Descending FlightAware ADS-B
07:59PM 40.6140 -73.5017 165° South 298 343 11,800 -2,580 Descending FlightAware ADS-B
07:59PM 40.6000 -73.4980 169° South 298 343 11,300 -2,520 Descending FlightAware ADS-B
07:59PM 40.5910 -73.4979 180° South 298 343 11,100 -2,340 Descending FlightAware ADS-B
07:59PM 40.5748 -73.5020 191° South 296 341 10,600 -2,640 Descending FlightAware ADS-B
08:00PM 40.5514 -73.5111 196° South 296 341 9,800 -2,520 Descending FlightAware ADS-B
08:00PM 40.5310 -73.5193 197° South 295 339 9,200 -2,160 Descending FlightAware ADS-B
08:00PM 40.5109 -73.5276 197° South 295 339 8,700 -2,280 Descending FlightAware ADS-B
08:00PM 40.4884 -73.5370 198° South 292 336 8,000 -2,040 Descending FlightAware ADS-B
08:01PM 40.4614 -73.5480 197° South 288 331 7,400 -1,500 Descending FlightAware ADS-B
08:01PM 40.4422 -73.5557 197° South 285 328 7,100 -1,380 Descending FlightAware ADS-B
08:01PM 40.4275 -73.5633 201° Southwest 285 328 6,800 -1,500 Descending FlightAware ADS-B
08:01PM 40.4227 -73.5672 212° Southwest 284 327 6,700 -1,800 Descending FlightAware ADS-B
08:01PM 40.4170 -73.5737 221° Southwest 284 327 6,500 -1,680 Descending FlightAware ADS-B
08:01PM 40.4125 -73.5809 231° Southwest 283 326 6,400 -1,500 Descending FlightAware ADS-B
08:02PM 40.4082 -73.5916 242° Southwest 283 326 6,200 -1,440 Descending FlightAware ADS-B
08:02PM 40.4058 -73.5999 249° West 281 323 6,100 -1,440 Descending FlightAware ADS-B
08:02PM 40.4010 -73.6257 256° West 281 323 5,700 -1,440 Descending FlightAware ADS-B
08:02PM 40.3965 -73.6508 257° West 281 323 5,400 -1,380 Descending FlightAware ADS-B
08:02PM 40.3917 -73.6766 256° West 281 323 5,000 -1,560 Descending FlightAware ADS-B
08:03PM 40.3847 -73.7147 256° West 280 322 4,400 -1,560 Descending FlightAware ADS-B
08:03PM 40.3811 -73.7344 257° West 280 322 4,100 -1,320 Descending FlightAware ADS-B
08:03PM 40.3744 -73.7686 256° West 278 320 3,700 -720 Descending FlightAware ADS-B
08:04PM 40.3677 -73.8038 256° West 266 306 3,600 -180 Descending FlightAware ADS-B
08:04PM 40.3629 -73.8297 256° West 250 288 3,600  Level FlightAware ADS-B
08:04PM 40.3590 -73.8513 257° West 236 272 3,600  Level FlightAware ADS-B
08:05PM 40.3553 -73.8710 256° West 217 250 3,600  Level FlightAware ADS-B
08:05PM 40.3519 -73.8898 257° West 204 235 3,600  Level FlightAware ADS-B
08:05PM 40.3505 -73.9047 263° West 191 220 3,600  Level FlightAware ADS-B
08:05PM 40.3514 -73.9100 283° West 188 216 3,600  Level FlightAware ADS-B
08:05PM 40.3523 -73.9135 289° West 187 215 3,600 480 Level FlightAware ADS-B
08:05PM 40.3552 -73.9225 293° West 186 214 3,700  Climbing FlightAware ADS-B
08:05PM 40.3595 -73.9347 295° West 186 214 3,600 -300 Descending FlightAware ADS-B
08:06PM 40.3624 -73.9459 289° West 181 208 3,600  Level FlightAware ADS-B
08:06PM 40.3677 -73.9720 285° West 181 208 3,600  Level FlightAware ADS-B
08:06PM 40.3715 -73.9899 286° West 181 208 3,600  Level FlightAware ADS-B
08:07PM 40.3756 -74.0098 285° West 180 207 3,600  Level FlightAware ADS-B
08:07PM 40.3770 -74.0149 290° West 180 207 3,600  Level FlightAware ADS-B
08:07PM 40.3783 -74.0192 292° West 180 207 3,600  Level FlightAware ADS-B
08:07PM 40.3819 -74.0250 309° West 174 200 3,600  Level FlightAware ADS-B
08:07PM 40.3864 -74.0285 329° Northwest 171 197 3,600  Level FlightAware ADS-B
08:07PM 40.3887 -74.0295 342° North 169 194 3,600  Level FlightAware ADS-B
08:07PM 40.3914 -74.0302 349° North 167 192 3,600 540 Level FlightAware ADS-B
08:07PM 40.3971 -74.0311 353° North 160 184 3,700  Climbing FlightAware ADS-B
08:07PM 40.4012 -74.0312 359° North 156 180 3,600 -600 Descending FlightAware ADS-B
08:07PM 40.4045 -74.0311 North 154 177 3,600 -720 Level FlightAware ADS-B
08:08PM 40.4077 -74.0306 North 153 176 3,500 -960 Descending FlightAware ADS-B
08:08PM 40.4135 -74.0290 12° North 152 175 3,400 -1,020 Descending FlightAware ADS-B
08:08PM 40.4163 -74.0281 14° North 153 176 3,300 -1,020 Descending FlightAware ADS-B
08:08PM 40.4216 -74.0259 18° North 154 177 3,200 -720 Descending FlightAware ADS-B
08:08PM 40.4282 -74.0228 20° North 153 176 3,100 -960 Descending FlightAware ADS-B
08:08PM 40.4379 -74.0170 24° Northeast 153 176 2,800 -540 Descending FlightAware ADS-B
08:09PM 40.4590 -74.0040 25° Northeast 161 185 2,700 -180 Descending FlightAware
08:09PM 40.4654 -73.9991 30° Northeast 161 185 2,700  Level FlightAware ADS-B
08:09PM 40.4796 -73.9892 28° Northeast 162 186 2,700  Level FlightAware ADS-B
08:10PM 40.5140 -73.9630 30° Northeast 158 182 2,700 -120 Level FlightAware
08:11PM 40.5320 -73.9500 29° Northeast 160 184 2,600 -480 Descending FlightAware
08:11PM 40.5470 -73.9370 33° Northeast 159 183 2,300 -600 Descending FlightAware
08:12PM 40.5690 -73.9190 32° Northeast 158 182 2,000 -600 Descending FlightAware
08:12PM 40.5860 -73.9050 32° Northeast 160 184 1,700 -660 Descending FlightAware
08:13PM 40.6050 -73.8900 31° Northeast 148 170 1,400 -600 Descending FlightAware
08:13PM 40.6170 -73.8800 32° Northeast 130 150 1,200 -360 Descending FlightAware
08:14PM 40.6330 -73.8670 32° Northeast 131 151 1,100 -420 Descending FlightAware
08:14PM 40.6420 -73.8610 27° Northeast 128 147 900 -780 Descending FlightAware
08:14PM 40.6550 -73.8520 28° Northeast 127 146 600 -600 Descending FlightAware
08:15PM 40.6670 -73.8370 43° Northeast 124 143 400 -300 Descending FlightAware
08:15PM 40.6720 -73.8270 57° Northeast 125 144 400 -240 Level FlightAware
08:15PM 40.6740 -73.8160 77° East 120 138 300 -420 Descending FlightAware
08:16PM 40.6710 -73.7880 98° East 121 139 -480 Descending FlightAware
08:16PM 40.6650 -73.7720 116° Southeast 123 142  Level FlightAware